Time;durP1;ratioP1;P1;durP2;ratioP2;P2;SDS_P1;SDS_P2;PMS_P1;PMS_P2;Temp;Humidity;BMP_temperature;BMP_pressure;BME280_temperature;BME280_humidity;BME280_pressure;Samples;Min_cycle;Max_cycle;Signal;HPM_P1;HPM_P2
2024/03/18 00:02:11;;;;;;;1.47;1.00;;;10.90;98.20;;;;;;4941443;29;20462;-81
2024/03/18 00:04:37;;;;;;;1.50;1.10;;;10.80;98.20;;;;;;4925055;29;20469;-81
2024/03/18 00:07:06;;;;;;;1.50;1.10;;;10.80;98.20;;;;;;4924553;29;20870;-81
2024/03/18 00:09:33;;;;;;;1.50;1.10;;;10.90;98.20;;;;;;4919477;29;20531;-81
2024/03/18 00:11:59;;;;;;;1.50;1.10;;;10.80;98.20;;;;;;4937114;29;20472;-80
2024/03/18 00:14:27;;;;;;;1.50;1.10;;;10.80;98.20;;;;;;4930331;29;20472;-80
2024/03/18 00:16:53;;;;;;;1.50;1.10;;;10.80;98.20;;;;;;4938229;29;20522;-80
2024/03/18 00:19:20;;;;;;;1.50;1.13;;;10.70;98.20;;;;;;4940759;29;20474;-80
2024/03/18 00:21:47;;;;;;;1.50;1.10;;;10.70;98.20;;;;;;4936503;29;20479;-79
2024/03/18 00:24:15;;;;;;;1.60;1.40;;;10.70;98.20;;;;;;4928335;29;20470;-80
2024/03/18 00:26:42;;;;;;;1.50;1.10;;;10.70;98.20;;;;;;4933846;29;21032;-80
2024/03/18 00:29:08;;;;;;;1.50;1.10;;;10.60;98.20;;;;;;4937185;29;21060;-80
2024/03/18 00:31:35;;;;;;;1.50;1.03;;;10.60;98.20;;;;;;4938223;29;20471;-81
2024/03/18 00:34:02;;;;;;;1.50;1.10;;;10.60;98.20;;;;;;4922846;29;20464;-80
2024/03/18 00:36:30;;;;;;;1.50;1.00;;;10.60;98.20;;;;;;4928836;29;20545;-80
2024/03/18 00:38:57;;;;;;;1.50;1.10;;;10.50;98.20;;;;;;4929404;29;20519;-79
2024/03/18 00:44:09;;;;;;;1.50;1.10;;;10.50;98.20;;;;;;4921706;29;20496;-80
2024/03/18 00:46:36;;;;;;;1.50;1.10;;;10.50;98.20;;;;;;4935955;29;20858;-79
2024/03/18 00:49:04;;;;;;;1.50;1.10;;;10.50;98.20;;;;;;4936874;29;20494;-79
2024/03/18 00:51:31;;;;;;;4.90;3.33;;;10.50;98.20;;;;;;4939343;29;20464;-80
2024/03/18 00:53:58;;;;;;;1.50;1.10;;;10.50;98.20;;;;;;4934651;29;20475;-80
2024/03/18 00:56:27;;;;;;;1.50;1.10;;;10.50;98.20;;;;;;4939710;29;20479;-79
2024/03/18 00:58:56;;;;;;;1.50;1.10;;;10.50;98.20;;;;;;4939885;29;20532;-80
2024/03/18 01:01:23;;;;;;;1.50;1.10;;;10.50;98.20;;;;;;4936403;29;20464;-79
2024/03/18 01:03:50;;;;;;;1.50;1.10;;;10.50;98.20;;;;;;4929172;29;20496;-79
2024/03/18 01:06:18;;;;;;;1.60;1.30;;;10.60;98.20;;;;;;4932181;29;20591;-81
2024/03/18 01:08:44;;;;;;;1.50;1.10;;;10.60;98.20;;;;;;4931423;29;20539;-80
2024/03/18 01:11:11;;;;;;;1.50;1.20;;;10.60;98.20;;;;;;4916236;29;20903;-80
2024/03/18 01:13:40;;;;;;;1.50;1.20;;;10.60;98.20;;;;;;4925395;29;20472;-80
2024/03/18 01:16:09;;;;;;;1.50;1.10;;;10.60;98.20;;;;;;4935390;29;20888;-80
2024/03/18 01:18:36;;;;;;;1.50;1.10;;;10.60;98.20;;;;;;4934559;29;20489;-80
2024/03/18 01:21:03;;;;;;;1.50;1.10;;;10.60;98.20;;;;;;4935273;29;20468;-79
2024/03/18 01:23:29;;;;;;;1.50;1.10;;;10.60;98.20;;;;;;4929600;29;20504;-79
2024/03/18 01:25:56;;;;;;;1.50;1.10;;;10.60;98.20;;;;;;4929567;29;20499;-79
2024/03/18 01:28:23;;;;;;;1.50;1.03;;;10.60;98.20;;;;;;4932011;29;20488;-79
2024/03/18 01:30:51;;;;;;;1.50;1.13;;;10.60;98.20;;;;;;4930580;29;20465;-80
2024/03/18 01:33:20;;;;;;;3.10;2.53;;;10.60;98.20;;;;;;4921063;29;20473;-80
2024/03/18 01:35:48;;;;;;;1.50;1.10;;;10.60;98.20;;;;;;4912150;29;20476;-80
2024/03/18 01:38:15;;;;;;;1.50;1.10;;;10.60;98.20;;;;;;4918550;29;20583;-80
2024/03/18 01:40:42;;;;;;;1.50;1.10;;;10.60;98.20;;;;;;4922950;29;20554;-79
2024/03/18 01:43:09;;;;;;;1.50;1.10;;;10.60;98.20;;;;;;4920360;29;20480;-80
2024/03/18 01:45:39;;;;;;;1.50;1.10;;;10.60;98.20;;;;;;4911736;29;20519;-79
2024/03/18 01:48:08;;;;;;;1.50;1.13;;;10.60;98.20;;;;;;4930450;29;21156;-79
2024/03/18 01:50:35;;;;;;;1.50;1.07;;;10.50;98.20;;;;;;4915425;29;20551;-79
2024/03/18 01:53:02;;;;;;;1.50;1.10;;;10.60;98.20;;;;;;4916732;29;20467;-78
2024/03/18 01:55:29;;;;;;;1.50;1.00;;;10.60;98.20;;;;;;4924581;29;20476;-78
2024/03/18 01:57:56;;;;;;;1.50;1.20;;;10.60;98.20;;;;;;4915048;29;20617;-78
2024/03/18 02:00:24;;;;;;;1.50;1.03;;;10.60;98.20;;;;;;4913307;29;20472;-78
2024/03/18 02:02:51;;;;;;;1.50;1.10;;;10.60;98.20;;;;;;4910875;29;20560;-78
2024/03/18 02:05:19;;;;;;;1.50;1.10;;;10.70;98.20;;;;;;4923995;29;20475;-78
2024/03/18 02:07:48;;;;;;;1.50;1.10;;;10.70;98.20;;;;;;4922689;29;21061;-78
2024/03/18 02:10:15;;;;;;;1.50;1.10;;;10.70;98.20;;;;;;4925028;29;20465;-78
2024/03/18 02:12:41;;;;;;;1.50;1.17;;;10.60;98.20;;;;;;4905404;29;20573;-78
2024/03/18 02:15:09;;;;;;;1.50;1.20;;;10.70;98.20;;;;;;4920357;29;20479;-78
2024/03/18 02:17:36;;;;;;;1.50;1.10;;;10.60;98.20;;;;;;4918754;29;21010;-78
2024/03/18 02:20:02;;;;;;;1.50;1.10;;;10.60;98.20;;;;;;4930182;29;20468;-77
2024/03/18 02:22:31;;;;;;;1.50;1.20;;;10.60;98.20;;;;;;4922562;29;21180;-77
2024/03/18 02:24:57;;;;;;;1.70;1.60;;;10.60;98.20;;;;;;4908780;29;20475;-78
2024/03/18 02:27:29;;;;;;;1.50;1.17;;;10.60;98.20;;;;;;4910721;29;20500;-77
2024/03/18 02:29:57;;;;;;;1.50;1.10;;;10.50;98.20;;;;;;4919315;29;20480;-78
2024/03/18 02:32:23;;;;;;;1.50;1.13;;;10.50;98.20;;;;;;4912219;29;20469;-77
2024/03/18 02:34:50;;;;;;;1.50;1.10;;;10.50;98.20;;;;;;4919948;29;20476;-77
2024/03/18 02:37:17;;;;;;;1.50;1.30;;;10.50;98.20;;;;;;4911735;29;20484;-77
2024/03/18 02:39:45;;;;;;;1.50;1.20;;;10.50;98.20;;;;;;4919904;29;20551;-77
2024/03/18 02:42:12;;;;;;;1.50;1.10;;;10.60;98.20;;;;;;4920716;29;20849;-77
2024/03/18 02:44:39;;;;;;;1.50;1.10;;;10.60;98.20;;;;;;4918890;29;20826;-77
2024/03/18 02:47:06;;;;;;;1.50;1.10;;;10.60;98.20;;;;;;4917005;29;20488;-78
2024/03/18 02:49:32;;;;;;;1.50;1.00;;;10.60;98.20;;;;;;4919044;29;20476;-77
2024/03/18 02:51:59;;;;;;;1.50;1.20;;;10.70;98.20;;;;;;4915572;29;20889;-78
2024/03/18 02:54:26;;;;;;;1.50;1.10;;;10.70;98.20;;;;;;4925857;29;20476;-78
2024/03/18 02:56:54;;;;;;;1.50;1.20;;;10.60;98.20;;;;;;4915083;29;20852;-77
2024/03/18 02:59:21;;;;;;;1.50;1.20;;;10.60;98.20;;;;;;4917302;29;20487;-77
2024/03/18 03:01:49;;;;;;;1.50;1.20;;;10.60;98.20;;;;;;4903904;29;20481;-77
2024/03/18 03:04:16;;;;;;;1.50;1.10;;;10.60;98.20;;;;;;4915005;29;20969;-78
2024/03/18 03:06:43;;;;;;;2.23;2.03;;;10.50;98.20;;;;;;4915009;29;20492;-78
2024/03/18 03:09:11;;;;;;;1.50;1.10;;;10.60;98.20;;;;;;4913890;29;20507;-78
2024/03/18 03:11:38;;;;;;;1.50;1.10;;;10.60;98.20;;;;;;4913626;29;20469;-78
2024/03/18 03:14:08;;;;;;;1.50;1.10;;;10.50;98.20;;;;;;4915199;29;20467;-78
2024/03/18 03:16:37;;;;;;;1.50;1.10;;;10.50;98.20;;;;;;4914024;29;20465;-78
2024/03/18 03:19:03;;;;;;;1.50;1.10;;;10.50;98.20;;;;;;4912052;29;20547;-78
2024/03/18 03:21:30;;;;;;;1.50;1.10;;;10.60;98.20;;;;;;4909826;29;20469;-78
2024/03/18 03:23:58;;;;;;;1.50;1.00;;;10.60;98.20;;;;;;4910874;29;20469;-78
2024/03/18 03:26:25;;;;;;;1.50;1.10;;;10.50;98.20;;;;;;4915604;29;20476;-78
2024/03/18 03:28:52;;;;;;;1.50;1.20;;;10.50;98.20;;;;;;4914752;29;20495;-79
2024/03/18 03:31:20;;;;;;;1.50;1.00;;;10.50;98.20;;;;;;4917941;29;20848;-78
2024/03/18 03:33:46;;;;;;;1.50;1.20;;;10.50;98.20;;;;;;4916811;29;20473;-78
2024/03/18 03:36:13;;;;;;;1.50;1.10;;;10.50;98.20;;;;;;4907706;29;20527;-78
2024/03/18 03:38:40;;;;;;;1.50;1.00;;;10.50;98.20;;;;;;4913457;29;21035;-79
2024/03/18 03:41:08;;;;;;;1.50;1.20;;;10.50;98.20;;;;;;4916461;29;20467;-78
2024/03/18 03:43:33;;;;;;;1.50;1.03;;;10.50;98.20;;;;;;4918317;29;20465;-78
2024/03/18 03:46:02;;;;;;;1.50;1.10;;;10.50;98.20;;;;;;4915351;29;20475;-78
2024/03/18 03:48:30;;;;;;;1.50;1.10;;;10.50;98.20;;;;;;4921736;29;20233;-78
2024/03/18 03:50:58;;;;;;;1.50;1.20;;;10.50;98.20;;;;;;4926211;29;20511;-78
2024/03/18 03:53:25;;;;;;;1.50;1.10;;;10.50;98.20;;;;;;4918681;29;20472;-78
2024/03/18 03:55:55;;;;;;;1.70;1.57;;;10.50;98.20;;;;;;4916880;29;20503;-78
2024/03/18 03:58:22;;;;;;;1.50;1.10;;;10.50;98.20;;;;;;4914716;29;20588;-79
2024/03/18 04:00:50;;;;;;;1.50;1.10;;;10.50;98.20;;;;;;4916189;29;20468;-78
2024/03/18 04:03:19;;;;;;;1.50;1.20;;;10.50;98.20;;;;;;4925970;29;21019;-78
2024/03/18 04:05:51;;;;;;;1.50;1.20;;;10.50;98.20;;;;;;4917582;29;20477;-79
2024/03/18 04:08:17;;;;;;;1.50;1.20;;;10.50;98.20;;;;;;4918857;29;20492;-79
2024/03/18 04:10:44;;;;;;;1.50;1.10;;;10.50;98.20;;;;;;4920977;29;20472;-78
2024/03/18 04:13:11;;;;;;;1.50;1.10;;;10.50;98.20;;;;;;4921411;29;20480;-79
2024/03/18 04:15:38;;;;;;;1.50;1.10;;;10.50;98.20;;;;;;4920215;29;20473;-78
2024/03/18 04:18:07;;;;;;;1.50;1.20;;;10.50;98.20;;;;;;4921279;29;20475;-78
2024/03/18 04:20:34;;;;;;;1.50;1.00;;;10.50;98.20;;;;;;4920954;29;20898;-79
2024/03/18 04:23:05;;;;;;;1.57;1.30;;;10.50;98.20;;;;;;4920564;29;20830;-78
2024/03/18 04:25:33;;;;;;;1.50;1.10;;;10.50;98.20;;;;;;4920879;29;20544;-78
2024/03/18 04:28:02;;;;;;;1.60;1.30;;;10.60;98.20;;;;;;4918792;29;20886;-79
2024/03/18 04:30:30;;;;;;;1.50;1.00;;;10.60;98.20;;;;;;4919460;29;20465;-78
2024/03/18 04:32:57;;;;;;;1.50;1.10;;;10.60;98.20;;;;;;4910333;29;20468;-79
2024/03/18 04:35:24;;;;;;;1.50;1.20;;;10.60;98.20;;;;;;4912601;29;20480;-79
2024/03/18 04:37:55;;;;;;;1.50;1.10;;;10.60;98.20;;;;;;4915322;29;20492;-78
2024/03/18 04:40:25;;;;;;;1.50;1.10;;;10.60;98.20;;;;;;4912525;29;21048;-78
2024/03/18 04:42:52;;;;;;;1.50;1.10;;;10.60;98.20;;;;;;4909091;29;20481;-78
2024/03/18 04:45:20;;;;;;;1.50;1.00;;;10.60;98.20;;;;;;4914932;29;20469;-78
2024/03/18 04:47:49;;;;;;;1.50;1.00;;;10.60;98.20;;;;;;4905320;29;20497;-79
2024/03/18 04:50:18;;;;;;;1.50;1.10;;;10.60;98.20;;;;;;4908905;29;20474;-78
2024/03/18 04:52:45;;;;;;;1.50;1.00;;;10.60;98.20;;;;;;4908423;29;21063;-78
2024/03/18 06:17:27;;;;;;;1.50;1.10;;;10.70;98.20;;;;;;5354746;23;20495;-87
2024/03/18 07:39:28;;;;;;;1.50;1.00;;;12.00;98.20;;;;;;4921795;29;20470;-80
2024/03/18 07:41:57;;;;;;;1.50;1.10;;;12.20;98.20;;;;;;4927666;29;20471;-83
2024/03/18 07:45:01;;;;;;;1.50;1.00;;;12.30;98.20;;;;;;4934056;29;20467;-84
2024/03/18 07:47:31;;;;;;;1.50;1.00;;;12.30;98.20;;;;;;4932882;29;21022;-86
2024/03/18 07:50:03;;;;;;;1.50;1.10;;;12.50;98.20;;;;;;4930329;29;20499;-84
2024/03/18 07:52:38;;;;;;;1.50;1.00;;;12.60;98.20;;;;;;4928239;29;20858;-80
2024/03/18 07:55:09;;;;;;;1.50;1.00;;;12.60;98.20;;;;;;4930383;29;21119;-82
2024/03/18 07:57:36;;;;;;;1.50;1.00;;;12.60;98.20;;;;;;4926410;29;20500;-81
2024/03/18 08:00:06;;;;;;;1.50;1.07;;;12.60;98.20;;;;;;4919570;29;20479;-84
2024/03/18 08:05:45;;;;;;;1.50;1.03;;;12.60;98.20;;;;;;4928158;29;21078;-83
2024/03/18 08:08:23;;;;;;;1.50;0.97;;;12.60;98.20;;;;;;4930857;29;20550;-83
2024/03/18 08:10:50;;;;;;;1.57;1.10;;;12.60;98.20;;;;;;4927857;29;20476;-84
2024/03/18 08:13:16;;;;;;;1.50;1.00;;;12.60;98.20;;;;;;4933374;29;20833;-82
2024/03/18 08:15:53;;;;;;;1.53;1.00;;;12.60;98.20;;;;;;4925422;29;20523;-83
2024/03/18 08:18:27;;;;;;;1.50;0.93;;;12.60;98.20;;;;;;4925303;29;20480;-83
2024/03/18 08:20:54;;;;;;;1.60;1.00;;;12.80;98.20;;;;;;4928961;29;20860;-77
2024/03/18 08:23:33;;;;;;;1.50;1.10;;;12.90;98.20;;;;;;4927039;29;20220;-82
2024/03/18 08:26:18;;;;;;;1.50;0.97;;;13.10;98.20;;;;;;4928887;29;20495;-85
2024/03/18 08:28:45;;;;;;;1.53;1.00;;;13.20;98.20;;;;;;4926896;29;20595;-84
2024/03/18 08:31:12;;;;;;;1.50;1.00;;;13.30;98.20;;;;;;4933178;29;20471;-82
2024/03/18 08:33:39;;;;;;;1.53;1.00;;;13.40;98.20;;;;;;4922567;29;20472;-84
2024/03/18 08:36:09;;;;;;;1.60;1.30;;;13.50;98.20;;;;;;4932335;29;20499;-82
2024/03/18 08:38:46;;;;;;;1.50;0.90;;;13.50;98.20;;;;;;4927931;29;20472;-85
2024/03/18 08:41:13;;;;;;;1.50;1.00;;;13.50;98.20;;;;;;4934489;29;20489;-80
2024/03/18 08:43:45;;;;;;;1.50;1.00;;;13.60;98.20;;;;;;4928830;29;20475;-84
2024/03/18 08:46:19;;;;;;;1.50;0.90;;;13.70;98.20;;;;;;4928795;29;20524;-85
2024/03/18 08:48:46;;;;;;;1.50;1.00;;;13.80;98.20;;;;;;4925224;29;20496;-83
2024/03/18 08:51:13;;;;;;;1.50;0.90;;;13.90;98.20;;;;;;4929659;29;20507;-84
2024/03/18 08:53:40;;;;;;;1.53;1.00;;;14.00;98.20;;;;;;4931193;29;20476;-84
2024/03/18 08:56:12;;;;;;;1.50;1.00;;;14.10;98.20;;;;;;4932454;29;20583;-83
2024/03/18 08:58:39;;;;;;;1.53;1.00;;;14.30;98.20;;;;;;4930323;29;20539;-84
2024/03/18 09:01:08;;;;;;;1.50;0.90;;;14.40;98.20;;;;;;4932579;29;20574;-83
2024/03/18 09:03:35;;;;;;;1.50;0.90;;;14.60;98.20;;;;;;4925970;29;20902;-84
2024/03/18 09:16:29;;;;;;;1.50;0.90;;;14.80;98.20;;;;;;4776914;29;20486;-85
2024/03/18 09:18:58;;;;;;;1.50;0.90;;;15.00;98.20;;;;;;4885437;29;20500;-83
2024/03/18 09:22:09;;;;;;;1.50;0.90;;;15.10;98.20;;;;;;4918327;29;20475;-84
2024/03/18 09:24:35;;;;;;;1.50;0.93;;;15.30;98.20;;;;;;4931719;29;20467;-80
2024/03/18 09:27:05;;;;;;;1.90;1.27;;;15.40;98.20;;;;;;4930014;29;20464;-84
2024/03/18 09:33:26;;;;;;;;;;;;;;;;;;;;;
2024/03/18 09:36:13;;;;;;;1.50;0.90;;;16.10;98.20;;;;;;4933076;29;20475;-84
2024/03/18 09:41:54;;;;;;;1.50;0.90;;;16.80;98.20;;;;;;4927722;29;20578;-83
2024/03/18 09:44:29;;;;;;;1.53;0.90;;;16.80;98.20;;;;;;4927111;29;20482;-82
2024/03/18 09:47:05;;;;;;;1.50;0.90;;;16.90;98.20;;;;;;4928435;29;20955;-84
2024/03/18 09:49:35;;;;;;;1.50;0.90;;;17.00;98.20;;;;;;4933790;29;20467;-83
2024/03/18 09:52:11;;;;;;;1.50;0.90;;;17.00;98.20;;;;;;4932932;29;20463;-83
2024/03/18 09:54:39;;;;;;;1.50;1.00;;;17.00;98.20;;;;;;4930634;29;20467;-84
2024/03/18 10:00:29;;;;;;;1.50;0.90;;;16.90;98.20;;;;;;4922986;29;20556;-82
2024/03/18 10:03:01;;;;;;;1.50;0.90;;;16.90;98.20;;;;;;4931126;29;20540;-83
2024/03/18 10:05:30;;;;;;;1.50;0.90;;;16.80;98.20;;;;;;4932428;29;20578;-82
2024/03/18 10:07:58;;;;;;;1.50;0.90;;;16.60;98.20;;;;;;4924522;29;20469;-84
2024/03/18 10:10:25;;;;;;;1.50;0.90;;;16.60;98.20;;;;;;4929169;29;20903;-83
2024/03/18 10:12:52;;;;;;;1.50;0.90;;;16.80;98.20;;;;;;4930817;29;20474;-83
2024/03/18 10:15:19;;;;;;;1.50;0.90;;;16.90;98.20;;;;;;4931714;29;20491;-84
2024/03/18 10:17:52;;;;;;;1.50;0.90;;;17.00;98.20;;;;;;4905849;29;20461;-84
2024/03/18 10:20:23;;;;;;;1.50;0.90;;;17.00;98.20;;;;;;4915878;29;20469;-84
2024/03/18 10:23:00;;;;;;;1.50;0.90;;;16.90;98.20;;;;;;4912116;29;20654;-84
2024/03/18 10:25:38;;;;;;;1.50;0.90;;;17.00;98.20;;;;;;4907640;29;20525;-85
2024/03/18 10:28:23;;;;;;;1.50;0.90;;;17.10;98.20;;;;;;4913245;29;20496;-83
2024/03/18 10:30:51;;;;;;;1.53;1.00;;;17.20;98.20;;;;;;4913490;29;20957;-85
2024/03/18 10:33:18;;;;;;;1.50;0.90;;;17.30;98.20;;;;;;4908199;29;20468;-82
2024/03/18 10:39:04;;;;;;;1.50;1.00;;;17.60;98.20;;;;;;4906435;29;20507;-82
2024/03/18 10:41:36;;;;;;;1.50;0.90;;;17.90;98.20;;;;;;4910662;29;20495;-83
2024/03/18 10:44:10;;;;;;;1.50;0.90;;;18.20;98.20;;;;;;4913079;29;20627;-82
2024/03/18 10:46:41;;;;;;;1.50;0.90;;;18.40;98.20;;;;;;4909534;29;20488;-82
2024/03/18 10:49:16;;;;;;;1.50;0.90;;;18.40;98.20;;;;;;4911683;29;20913;-83
2024/03/18 10:51:46;;;;;;;1.50;0.90;;;18.40;98.20;;;;;;4908003;29;20508;-82
2024/03/18 10:54:18;;;;;;;1.53;1.00;;;18.20;98.20;;;;;;4915014;29;20528;-82
2024/03/18 10:56:45;;;;;;;1.50;0.90;;;18.00;98.20;;;;;;4931452;23;20500;-80
2024/03/18 10:59:15;;;;;;;1.50;0.90;;;17.80;98.20;;;;;;4909600;29;20500;-80
2024/03/18 11:01:42;;;;;;;1.50;0.90;;;17.60;98.20;;;;;;4915330;29;20602;-80
2024/03/18 11:04:20;;;;;;;1.50;0.90;;;17.70;98.20;;;;;;4914723;29;20468;-80
2024/03/18 11:06:49;;;;;;;1.50;0.90;;;17.90;98.20;;;;;;4893874;29;20489;-79
2024/03/18 11:09:19;;;;;;;1.50;0.90;;;18.10;98.20;;;;;;4892784;29;20458;-79
2024/03/18 11:11:46;;;;;;;1.50;0.90;;;18.10;98.20;;;;;;4893680;29;20474;-80
2024/03/18 11:14:24;;;;;;;1.50;0.90;;;18.20;98.20;;;;;;4891696;29;20985;-80
2024/03/18 11:16:51;;;;;;;1.50;1.00;;;18.20;98.20;;;;;;4889281;29;20500;-80
2024/03/18 11:19:19;;;;;;;1.50;0.90;;;18.20;98.20;;;;;;4889306;29;20498;-79
2024/03/18 11:21:57;;;;;;;1.50;1.00;;;18.20;98.20;;;;;;4894715;29;20481;-80
2024/03/18 11:24:25;;;;;;;1.50;0.90;;;18.20;98.20;;;;;;4899991;29;20473;-80
2024/03/18 11:26:56;;;;;;;1.80;1.20;;;18.00;98.20;;;;;;4900186;29;20489;-80
2024/03/18 11:29:23;;;;;;;1.50;0.90;;;17.90;98.20;;;;;;4890253;29;20461;-80
2024/03/18 11:31:52;;;;;;;1.50;0.90;;;17.80;98.20;;;;;;4896373;29;20561;-80
2024/03/18 11:34:23;;;;;;;1.50;1.00;;;17.90;98.20;;;;;;4889538;29;20505;-80
2024/03/18 11:36:50;;;;;;;1.50;0.90;;;18.00;98.20;;;;;;4900491;29;20571;-78
2024/03/18 11:39:17;;;;;;;1.50;1.00;;;18.20;98.20;;;;;;4890817;29;20493;-78
2024/03/18 11:41:45;;;;;;;1.57;1.10;;;18.40;98.20;;;;;;4893183;29;20469;-78
2024/03/18 11:44:14;;;;;;;1.50;0.90;;;18.70;98.20;;;;;;4894113;29;20698;-79
2024/03/18 11:46:42;;;;;;;1.50;0.90;;;19.20;98.20;;;;;;4897047;29;20493;-79
2024/03/18 11:49:11;;;;;;;1.50;0.90;;;19.50;98.20;;;;;;4885272;29;20477;-79
2024/03/18 11:51:43;;;;;;;1.50;1.00;;;19.80;98.20;;;;;;4889886;29;20477;-80
2024/03/18 11:54:10;;;;;;;1.50;0.90;;;20.00;98.20;;;;;;4892518;29;20538;-79
2024/03/18 11:56:37;;;;;;;1.70;1.10;;;20.20;98.20;;;;;;4890893;29;20536;-77
2024/03/18 11:59:06;;;;;;;1.50;0.90;;;20.30;97.00;;;;;;4888333;29;20499;-79
2024/03/18 12:01:33;;;;;;;1.50;0.90;;;20.30;96.00;;;;;;4892020;29;20477;-79
2024/03/18 12:04:00;;;;;;;1.50;0.90;;;20.40;97.80;;;;;;4886816;29;20542;-79
2024/03/18 12:06:27;;;;;;;1.50;0.90;;;20.60;97.70;;;;;;4890590;29;20521;-79
2024/03/18 12:08:54;;;;;;;1.50;0.90;;;20.60;95.70;;;;;;4889459;29;20543;-79
2024/03/18 12:11:21;;;;;;;1.50;0.90;;;20.40;95.90;;;;;;4887384;29;20473;-79
2024/03/18 12:13:49;;;;;;;1.50;0.90;;;20.00;96.00;;;;;;4889018;29;20474;-79
2024/03/18 12:16:17;;;;;;;1.50;0.93;;;19.90;97.60;;;;;;4895571;29;20545;-80
2024/03/18 12:18:44;;;;;;;1.50;0.90;;;19.90;97.30;;;;;;4892601;29;20506;-79
2024/03/18 12:21:11;;;;;;;1.50;0.90;;;20.00;96.50;;;;;;4893018;29;20485;-78
2024/03/18 12:29:08;;;;;;;1.50;0.90;;;19.70;97.10;;;;;;4893600;29;20474;-79
2024/03/18 12:31:36;;;;;;;1.50;0.90;;;19.40;97.30;;;;;;4888744;29;20481;-78
2024/03/18 12:34:04;;;;;;;1.50;0.90;;;19.30;98.20;;;;;;4887416;29;20482;-79
2024/03/18 12:36:33;;;;;;;1.50;0.90;;;19.30;97.90;;;;;;4892655;29;20842;-79
2024/03/18 12:39:05;;;;;;;1.50;0.90;;;19.30;98.20;;;;;;4899400;29;20527;-79
2024/03/18 12:41:35;;;;;;;1.50;0.90;;;19.30;98.20;;;;;;4891617;29;20478;-78
2024/03/18 12:44:02;;;;;;;1.50;0.90;;;19.30;98.20;;;;;;4891870;29;20477;-79
2024/03/18 12:46:29;;;;;;;1.50;0.90;;;19.30;98.20;;;;;;4893342;29;20498;-79
2024/03/18 12:48:57;;;;;;;1.50;0.90;;;19.40;98.20;;;;;;4891998;29;20461;-79
2024/03/18 12:51:24;;;;;;;1.50;0.87;;;19.30;96.80;;;;;;4890830;29;20485;-78
2024/03/18 12:53:51;;;;;;;1.50;0.90;;;19.20;97.50;;;;;;4895022;29;20478;-78
2024/03/18 12:56:19;;;;;;;1.47;0.90;;;19.10;98.20;;;;;;4893153;29;20504;-78
2024/03/18 12:58:44;;;;;;;1.50;0.90;;;19.10;98.20;;;;;;4897303;29;21031;-79
2024/03/18 13:01:14;;;;;;;1.50;0.90;;;19.20;98.20;;;;;;4897116;29;20469;-79
2024/03/18 13:03:41;;;;;;;1.47;0.90;;;19.30;98.20;;;;;;4891466;29;20245;-79
2024/03/18 13:06:09;;;;;;;1.50;0.90;;;19.60;98.20;;;;;;4893267;29;20493;-78
2024/03/18 13:08:36;;;;;;;1.50;0.90;;;19.90;98.20;;;;;;4890138;29;21025;-79
2024/03/18 13:11:06;;;;;;;1.50;0.90;;;19.80;96.70;;;;;;4897104;29;20481;-78
2024/03/18 13:13:35;;;;;;;1.47;0.90;;;19.60;97.80;;;;;;4900726;29;20857;-79
2024/03/18 13:16:02;;;;;;;1.50;0.90;;;19.20;98.20;;;;;;4894305;29;20504;-78
2024/03/18 13:18:29;;;;;;;1.50;0.90;;;18.80;98.20;;;;;;4899355;29;20508;-78
2024/03/18 13:20:56;;;;;;;1.50;1.10;;;18.40;98.20;;;;;;4895981;29;20465;-78
2024/03/18 13:23:26;;;;;;;1.50;1.07;;;18.20;98.20;;;;;;4891560;29;20484;-79
2024/03/18 13:25:53;;;;;;;1.43;0.90;;;18.30;98.20;;;;;;4892229;29;20493;-79
2024/03/18 13:28:20;;;;;;;1.50;0.90;;;18.50;98.20;;;;;;4891409;29;20494;-78
2024/03/18 13:30:47;;;;;;;1.50;0.90;;;18.80;98.20;;;;;;4891516;29;20549;-77
2024/03/18 13:33:15;;;;;;;1.47;0.90;;;18.90;98.20;;;;;;4889113;29;20477;-77
2024/03/18 13:35:42;;;;;;;1.47;0.90;;;18.70;98.20;;;;;;4887330;29;20496;-78
2024/03/18 13:38:11;;;;;;;1.47;0.90;;;18.50;98.20;;;;;;4887691;29;20823;-77
2024/03/18 13:40:39;;;;;;;1.47;0.90;;;18.30;98.20;;;;;;4890764;29;20888;-78
2024/03/18 13:43:07;;;;;;;1.60;1.20;;;18.10;98.20;;;;;;4887335;29;20504;-79
2024/03/18 13:45:35;;;;;;;1.50;0.90;;;18.10;98.20;;;;;;4886056;29;20500;-78
2024/03/18 13:48:03;;;;;;;1.50;0.90;;;18.10;98.20;;;;;;4884693;29;20548;-78
2024/03/18 13:50:31;;;;;;;1.50;0.90;;;18.30;98.20;;;;;;4888799;29;20458;-79
2024/03/18 13:52:58;;;;;;;1.50;0.90;;;18.40;98.20;;;;;;4893819;29;20529;-78
2024/03/18 13:55:24;;;;;;;1.50;0.90;;;18.70;98.20;;;;;;4886797;29;20549;-78
2024/03/18 13:57:52;;;;;;;1.50;0.90;;;18.70;98.20;;;;;;4890577;29;20560;-78
2024/03/18 14:00:21;;;;;;;1.47;0.90;;;18.60;98.20;;;;;;4891287;29;20498;-79
2024/03/18 14:02:48;;;;;;;1.50;0.90;;;18.60;98.20;;;;;;4891940;29;20473;-78
2024/03/18 14:05:15;;;;;;;1.50;0.90;;;18.60;98.20;;;;;;4887559;29;20493;-78
2024/03/18 14:07:42;;;;;;;1.43;0.90;;;18.70;98.20;;;;;;4896221;29;20474;-78
2024/03/18 14:10:10;;;;;;;1.50;0.90;;;18.70;98.20;;;;;;4886068;29;20468;-78
2024/03/18 14:12:37;;;;;;;1.90;1.20;;;18.60;98.20;;;;;;4891794;29;20839;-78
2024/03/18 14:15:07;;;;;;;1.47;0.87;;;18.50;98.20;;;;;;4894061;29;20457;-78
2024/03/18 14:17:34;;;;;;;1.43;0.90;;;18.40;98.20;;;;;;4895921;29;20472;-78
2024/03/18 14:20:05;;;;;;;1.47;0.90;;;18.30;98.20;;;;;;4889879;29;20494;-78
2024/03/18 14:22:32;;;;;;;1.50;0.90;;;18.30;98.20;;;;;;4897517;29;20537;-78
2024/03/18 14:25:00;;;;;;;1.50;0.90;;;18.30;98.20;;;;;;4900152;29;20461;-79
2024/03/18 14:27:27;;;;;;;1.50;0.90;;;18.30;98.20;;;;;;4901981;29;20475;-77
2024/03/18 14:29:54;;;;;;;1.50;0.90;;;18.30;98.20;;;;;;4895643;29;20531;-79
2024/03/18 14:32:22;;;;;;;1.50;0.90;;;18.30;98.20;;;;;;4894164;29;20948;-79
2024/03/18 14:34:49;;;;;;;1.60;1.17;;;18.40;98.20;;;;;;4896268;29;20506;-79
2024/03/18 14:37:16;;;;;;;1.50;0.90;;;18.30;98.20;;;;;;4893482;29;20500;-80
2024/03/18 14:39:43;;;;;;;1.47;0.90;;;18.20;98.20;;;;;;4901104;29;20490;-78
2024/03/18 14:42:12;;;;;;;1.50;0.90;;;18.30;98.20;;;;;;4899367;29;20850;-79
2024/03/18 14:44:39;;;;;;;1.50;0.90;;;18.40;98.20;;;;;;4897133;29;20976;-79
2024/03/18 14:47:06;;;;;;;1.50;1.00;;;18.30;98.20;;;;;;4892210;29;20494;-79
2024/03/18 14:49:35;;;;;;;1.50;0.90;;;18.20;98.20;;;;;;4892262;29;20462;-79
2024/03/18 14:52:02;;;;;;;1.50;0.90;;;18.10;98.20;;;;;;4893392;29;20469;-79
2024/03/18 14:54:29;;;;;;;1.50;0.90;;;18.20;98.20;;;;;;4891423;29;20495;-79
2024/03/18 14:56:56;;;;;;;1.47;0.90;;;18.40;98.20;;;;;;4895527;29;20555;-79
2024/03/18 14:59:22;;;;;;;1.47;0.90;;;18.50;98.20;;;;;;4892366;29;20500;-79
2024/03/18 15:01:49;;;;;;;1.47;0.90;;;18.70;98.20;;;;;;4898854;29;20462;-79
2024/03/18 15:04:16;;;;;;;1.50;0.90;;;18.80;98.20;;;;;;4897508;29;20477;-78
2024/03/18 15:06:44;;;;;;;1.47;0.90;;;19.00;98.20;;;;;;4893212;29;20504;-79
2024/03/18 15:09:12;;;;;;;1.50;0.90;;;19.30;98.20;;;;;;4897231;29;20501;-78
2024/03/18 15:11:38;;;;;;;1.50;0.90;;;19.30;98.20;;;;;;4896161;29;20492;-79
2024/03/18 15:14:05;;;;;;;1.50;0.80;;;19.40;98.20;;;;;;4888228;29;20473;-79
2024/03/18 15:16:32;;;;;;;1.50;1.00;;;19.40;96.90;;;;;;4903751;29;20489;-79
2024/03/18 15:18:59;;;;;;;1.50;0.90;;;19.30;97.60;;;;;;4895559;29;20462;-79
2024/03/18 15:21:26;;;;;;;1.47;0.90;;;19.10;97.60;;;;;;4891204;29;20485;-79
2024/03/18 15:24:13;;;;;;;1.47;0.90;;;18.90;98.20;;;;;;4901651;29;20595;-79
2024/03/18 15:29:35;;;;;;;1.50;0.90;;;18.40;98.20;;;;;;4873518;29;20454;-79
2024/03/18 15:32:01;;;;;;;1.50;0.90;;;18.20;98.20;;;;;;4894891;29;20496;-79
2024/03/18 15:34:28;;;;;;;1.47;0.90;;;18.00;98.20;;;;;;4895807;29;20839;-79
2024/03/18 15:36:55;;;;;;;1.50;0.90;;;17.80;98.20;;;;;;4895602;29;20592;-79
2024/03/18 15:39:25;;;;;;;1.50;0.90;;;17.70;98.20;;;;;;4897229;29;20553;-80
2024/03/18 15:41:52;;;;;;;1.50;0.93;;;17.60;98.20;;;;;;4894902;29;20949;-79
2024/03/18 15:44:19;;;;;;;1.50;0.90;;;17.50;98.20;;;;;;4890844;29;20525;-79
2024/03/18 15:46:45;;;;;;;1.50;1.00;;;17.30;98.20;;;;;;4899876;29;20496;-80
2024/03/18 15:49:13;;;;;;;1.50;0.97;;;17.20;98.20;;;;;;4894371;29;20485;-78
2024/03/18 15:51:40;;;;;;;1.50;0.90;;;17.10;98.20;;;;;;4895337;29;20473;-79
2024/03/18 15:54:08;;;;;;;1.50;0.90;;;16.90;98.20;;;;;;4900616;29;20465;-79
2024/03/18 15:56:37;;;;;;;1.50;0.90;;;16.80;98.20;;;;;;4906358;29;20485;-79
2024/03/18 15:59:03;;;;;;;1.50;0.90;;;16.70;98.20;;;;;;4897478;29;20465;-78
2024/03/18 16:01:30;;;;;;;1.47;0.90;;;16.70;98.20;;;;;;4898899;29;20984;-78
2024/03/18 16:03:57;;;;;;;1.47;0.90;;;16.70;98.20;;;;;;4903578;29;20479;-78
2024/03/18 16:06:25;;;;;;;1.50;0.93;;;16.60;98.20;;;;;;4896617;29;20516;-80
2024/03/18 16:08:55;;;;;;;1.50;1.00;;;16.60;98.20;;;;;;4898905;29;20904;-78
2024/03/18 16:11:22;;;;;;;1.50;1.00;;;16.50;98.20;;;;;;4894754;29;20478;-77
2024/03/18 16:13:51;;;;;;;1.43;0.90;;;16.50;98.20;;;;;;4892765;29;20507;-78
2024/03/18 16:16:18;;;;;;;1.50;1.00;;;16.50;98.20;;;;;;4888620;29;20521;-78